Terminal Aerodrome Forecast
Issued by NWS Green Bay, WI

Home | Current Version | Previous Version | Text Only | Print | Product List | Glossary On
Versions: 1 2 3 4 5 6 7 8 9 10 11 12 13 14 15 16 17 18 19 20 21 22 23 24 25 26 27 28 29 30 31 32 33 34 35 36 37 38
000
FTUS43 KGRB 160520
TAFGRB
TAF
KGRB 160520Z 1606/1706 07010KT P6SM BKN060
     FM161000 06010KT 6SM -SHRA BKN040
     FM161500 05008KT P6SM VCSH BKN050
     FM162300 05005KT P6SM BKN070
     FM170300 VRB03KT P6SM BKN110=

USA.gov is the U.S. government's official web portal to all federal, state and local government web resources and services.